Time;durP1;ratioP1;P1;durP2;ratioP2;P2;SDS_P1;SDS_P2;PMS_P1;PMS_P2;Temp;Humidity;BMP_temperature;BMP_pressure;BME280_temperature;BME280_humidity;BME280_pressure;Samples;Min_cycle;Max_cycle;Signal;HPM_P1;HPM_P2
2024/01/09 00:01:48;;;;;;;54.30;21.52;;;-9.30;61.60;;;;;;5006801;28;114246;-81
2024/01/09 00:04:16;;;;;;;49.30;19.98;;;-9.20;61.60;;;;;;5007583;28;114514;-81
2024/01/09 00:06:43;;;;;;;38.80;16.80;;;-9.20;61.60;;;;;;4989789;28;117906;-81
2024/01/09 00:09:10;;;;;;;40.17;16.98;;;-9.20;61.60;;;;;;5006458;28;116117;-81
2024/01/09 00:11:38;;;;;;;33.00;14.20;;;-9.30;61.50;;;;;;5008865;28;114493;-81
2024/01/09 00:14:05;;;;;;;40.05;17.95;;;-9.20;61.70;;;;;;5024180;28;114637;-82
2024/01/09 00:16:33;;;;;;;46.70;19.20;;;-9.20;61.80;;;;;;4990030;28;115187;-80
2024/01/09 00:19:01;;;;;;;44.33;20.00;;;-9.20;61.90;;;;;;5011590;28;114684;-80
2024/01/09 00:21:28;;;;;;;54.33;24.70;;;-9.20;61.80;;;;;;4996649;28;114167;-80
2024/01/09 00:23:56;;;;;;;39.28;17.20;;;-9.10;61.70;;;;;;5008811;28;114195;-80
2024/01/09 00:26:25;;;;;;;39.65;21.02;;;-9.20;61.60;;;;;;5005894;28;118002;-80
2024/01/09 00:28:53;;;;;;;39.60;16.88;;;-9.20;61.60;;;;;;5005381;28;114943;-80
2024/01/09 00:31:21;;;;;;;47.97;18.58;;;-9.20;61.50;;;;;;5019050;28;114667;-80
2024/01/09 00:33:50;;;;;;;37.10;18.45;;;-9.20;61.50;;;;;;5017422;28;114226;-81
2024/01/09 00:36:18;;;;;;;32.97;14.18;;;-9.30;61.40;;;;;;5006840;28;115464;-81
2024/01/09 00:38:45;;;;;;;18.20;9.80;;;-9.30;61.40;;;;;;5008178;28;114555;-81
2024/01/09 00:41:13;;;;;;;33.72;13.02;;;-9.20;61.50;;;;;;5007909;28;114584;-81
2024/01/09 00:43:40;;;;;;;46.38;16.73;;;-9.30;61.60;;;;;;5009323;28;114235;-81
2024/01/09 00:46:07;;;;;;;21.25;8.82;;;-9.30;61.60;;;;;;5006067;28;118281;-81
2024/01/09 00:48:35;;;;;;;28.73;12.52;;;-9.40;61.70;;;;;;5006393;28;115329;-81
2024/01/09 00:51:02;;;;;;;24.85;10.02;;;-9.50;61.80;;;;;;5006089;28;114311;-81
2024/01/09 00:53:30;;;;;;;30.88;13.50;;;-9.40;62.20;;;;;;5007916;28;114328;-81
2024/01/09 00:55:57;;;;;;;29.75;14.70;;;-9.40;62.30;;;;;;5006962;28;115194;-80
2024/01/09 00:58:24;;;;;;;44.33;19.95;;;-9.40;62.20;;;;;;5005932;28;114976;-80
2024/01/09 01:00:52;;;;;;;35.70;18.23;;;-9.30;62.00;;;;;;5023260;28;114512;-80
2024/01/09 01:03:19;;;;;;;18.67;9.68;;;-9.40;61.80;;;;;;5007703;28;114449;-80
2024/01/09 01:05:46;;;;;;;13.30;9.15;;;-9.40;61.70;;;;;;5006919;28;116008;-80
2024/01/09 01:08:16;;;;;;;29.67;12.40;;;-9.50;61.70;;;;;;5005304;28;115291;-80
2024/01/09 01:10:49;;;;;;;22.77;9.30;;;-9.60;61.90;;;;;;5006589;28;114954;-80
2024/01/09 01:13:17;;;;;;;13.45;4.53;;;-9.70;61.70;;;;;;4990454;28;114652;-81
2024/01/09 01:15:45;;;;;;;14.63;11.80;;;-9.80;61.90;;;;;;5004967;28;118393;-81
2024/01/09 01:18:13;;;;;;;10.07;4.38;;;-9.90;62.10;;;;;;5005431;28;114641;-81
2024/01/09 01:20:41;;;;;;;17.92;9.48;;;-10.00;62.10;;;;;;4973718;28;114707;-81
2024/01/09 01:23:08;;;;;;;19.17;10.00;;;-10.10;62.20;;;;;;5022867;28;114289;-81
2024/01/09 01:25:36;;;;;;;26.15;13.82;;;-10.10;62.10;;;;;;5006553;28;115541;-80
2024/01/09 01:28:04;;;;;;;11.48;8.65;;;-10.30;61.80;;;;;;5006040;28;114713;-81
2024/01/09 01:30:31;;;;;;;16.73;9.20;;;-10.40;61.70;;;;;;4973156;28;114353;-81
2024/01/09 01:32:58;;;;;;;9.20;5.57;;;-10.60;61.80;;;;;;4990088;28;114682;-80
2024/01/09 01:35:26;;;;;;;19.67;10.10;;;-10.70;62.10;;;;;;5005375;28;115471;-80
2024/01/09 01:37:53;;;;;;;10.35;7.32;;;-10.70;62.20;;;;;;5005262;28;114748;-81
2024/01/09 01:40:21;;;;;;;13.48;7.80;;;-10.80;62.20;;;;;;5005421;28;114687;-80
2024/01/09 01:42:48;;;;;;;29.25;14.25;;;-10.80;62.10;;;;;;5005947;28;114633;-80
2024/01/09 01:45:16;;;;;;;33.10;12.65;;;-10.90;62.20;;;;;;5006276;28;115532;-80
2024/01/09 01:47:45;;;;;;;15.95;9.30;;;-11.00;62.30;;;;;;4971831;28;114551;-80
2024/01/09 01:50:14;;;;;;;7.00;2.95;;;-11.10;62.20;;;;;;5005523;28;114516;-80
2024/01/09 01:52:42;;;;;;;19.50;10.60;;;-11.20;62.20;;;;;;5007108;28;114803;-80
2024/01/09 01:55:11;;;;;;;14.93;6.00;;;-11.20;62.50;;;;;;4988425;28;116909;-79
2024/01/09 01:57:39;;;;;;;10.93;6.13;;;-11.20;62.70;;;;;;5005174;28;114526;-79
2024/01/09 02:00:07;;;;;;;7.30;4.18;;;-11.30;62.60;;;;;;4989620;28;115210;-80
2024/01/09 02:02:37;;;;;;;24.02;13.63;;;-11.30;62.70;;;;;;4989771;28;114405;-81
2024/01/09 02:05:05;;;;;;;13.80;8.57;;;-11.30;62.50;;;;;;5008595;28;115733;-80
2024/01/09 02:07:33;;;;;;;2.70;2.05;;;-11.40;62.50;;;;;;4991188;28;115246;-79
2024/01/09 02:10:02;;;;;;;11.63;6.03;;;-11.50;62.80;;;;;;5015763;28;114354;-80
2024/01/09 02:12:30;;;;;;;2.58;2.35;;;-11.50;62.90;;;;;;4957533;28;114409;-80
2024/01/09 02:14:57;;;;;;;5.05;3.88;;;-11.40;63.00;;;;;;4989666;28;115090;-80
2024/01/09 02:17:24;;;;;;;11.45;5.00;;;-11.40;63.20;;;;;;4989424;28;114618;-81
2024/01/09 02:19:59;;;;;;;14.25;4.80;;;-11.40;63.30;;;;;;5006024;28;115038;-82
2024/01/09 02:22:26;;;;;;;3.33;3.00;;;-11.30;63.40;;;;;;5008313;28;114516;-80
2024/01/09 02:24:53;;;;;;;9.35;4.28;;;-11.20;63.50;;;;;;5005725;28;116494;-80
2024/01/09 02:27:26;;;;;;;31.42;14.15;;;-11.00;63.60;;;;;;4988672;28;114622;-81
2024/01/09 02:29:55;;;;;;;8.80;6.22;;;-10.90;63.60;;;;;;5006592;28;114259;-81
2024/01/09 02:32:23;;;;;;;10.20;6.20;;;-10.80;63.30;;;;;;4989527;28;114629;-81
2024/01/09 02:34:50;;;;;;;17.27;7.32;;;-10.80;63.20;;;;;;4988632;28;115626;-81
2024/01/09 02:37:17;;;;;;;9.52;6.57;;;-10.80;63.30;;;;;;5004633;28;114828;-81
2024/01/09 02:39:45;;;;;;;12.55;4.28;;;-10.70;63.30;;;;;;4972946;28;114631;-80
2024/01/09 02:42:13;;;;;;;17.40;9.27;;;-10.70;63.10;;;;;;5005697;28;114313;-81
2024/01/09 02:44:40;;;;;;;18.75;10.02;;;-10.60;63.00;;;;;;5004226;28;115481;-81
2024/01/09 02:47:07;;;;;;;8.85;4.40;;;-10.60;62.80;;;;;;4988089;28;114727;-81
2024/01/09 02:49:38;;;;;;;4.95;3.35;;;-10.60;62.90;;;;;;4987807;28;114355;-80
2024/01/09 02:52:05;;;;;;;19.27;8.32;;;-10.70;63.00;;;;;;4972317;28;114619;-81
2024/01/09 02:54:33;;;;;;;6.82;4.00;;;-10.60;63.30;;;;;;5005222;28;115698;-80
2024/01/09 02:57:00;;;;;;;22.55;9.70;;;-10.60;63.30;;;;;;5005539;28;114917;-80
2024/01/09 02:59:27;;;;;;;24.63;12.70;;;-10.50;63.20;;;;;;4971133;28;114347;-80
2024/01/09 03:01:55;;;;;;;17.73;9.18;;;-10.40;63.00;;;;;;4988287;28;114526;-81
2024/01/09 03:04:22;;;;;;;35.20;15.38;;;-10.40;62.90;;;;;;5005481;28;115480;-80
2024/01/09 03:06:50;;;;;;;17.98;9.63;;;-10.40;62.80;;;;;;5004154;28;114803;-80
2024/01/09 03:09:17;;;;;;;19.35;11.38;;;-10.40;62.50;;;;;;5006180;28;114615;-81
2024/01/09 03:11:44;;;;;;;9.15;5.25;;;-10.40;62.40;;;;;;4988825;28;114322;-81
2024/01/09 03:14:13;;;;;;;10.90;7.95;;;-10.30;62.40;;;;;;5004025;28;115230;-81
2024/01/09 03:16:41;;;;;;;7.18;3.35;;;-10.30;62.40;;;;;;5005245;28;114711;-81
2024/01/09 03:19:08;;;;;;;9.05;6.63;;;-10.20;62.40;;;;;;5005368;28;114281;-81
2024/01/09 03:21:36;;;;;;;29.17;16.00;;;-10.20;62.50;;;;;;5005334;28;114488;-81
2024/01/09 03:24:03;;;;;;;27.38;15.15;;;-10.20;62.40;;;;;;4970761;28;115272;-80
2024/01/09 03:26:31;;;;;;;9.70;7.82;;;-10.10;62.40;;;;;;5004491;28;116434;-80
2024/01/09 03:29:02;;;;;;;3.28;2.97;;;-10.10;62.10;;;;;;5005302;28;114569;-80
2024/01/09 03:31:30;;;;;;;17.20;8.07;;;-10.20;61.90;;;;;;5005500;28;114468;-80
2024/01/09 03:33:57;;;;;;;2.97;2.13;;;-10.20;62.00;;;;;;5003517;28;115125;-80
2024/01/09 03:36:25;;;;;;;8.13;4.30;;;-10.20;62.10;;;;;;4987509;28;114747;-80
2024/01/09 03:38:53;;;;;;;17.83;8.93;;;-10.20;62.10;;;;;;5004549;28;114592;-80
2024/01/09 03:41:22;;;;;;;36.30;14.38;;;-10.10;62.10;;;;;;5004482;28;114256;-81
2024/01/09 03:43:50;;;;;;;18.63;8.98;;;-10.10;62.20;;;;;;4988449;28;115123;-81
2024/01/09 03:46:17;;;;;;;20.13;11.35;;;-10.10;62.10;;;;;;4998450;28;117712;-81
2024/01/09 03:48:44;;;;;;;8.23;4.57;;;-10.10;61.90;;;;;;5007611;28;114322;-81
2024/01/09 03:51:12;;;;;;;19.30;10.85;;;-10.20;61.70;;;;;;5008453;28;114622;-80
2024/01/09 03:53:39;;;;;;;19.60;8.93;;;-10.30;61.90;;;;;;5004825;28;115640;-80
2024/01/09 03:56:06;;;;;;;13.75;5.65;;;-10.30;62.00;;;;;;4987368;28;114728;-80
2024/01/09 03:58:34;;;;;;;14.85;9.13;;;-10.30;62.20;;;;;;5006929;28;114485;-82
2024/01/09 04:01:04;;;;;;;16.50;11.48;;;-10.40;62.00;;;;;;5007495;28;114669;-81
2024/01/09 04:03:32;;;;;;;7.88;3.65;;;-10.60;61.90;;;;;;5004142;28;115119;-80
2024/01/09 04:05:59;;;;;;;15.93;7.13;;;-10.70;62.00;;;;;;5004873;28;115128;-80
2024/01/09 04:08:26;;;;;;;13.77;8.18;;;-10.80;62.40;;;;;;4988038;28;114416;-81
2024/01/09 04:10:54;;;;;;;3.17;2.53;;;-10.80;62.70;;;;;;4989996;28;114367;-80
2024/01/09 04:13:22;;;;;;;8.68;4.05;;;-10.90;62.50;;;;;;5007250;28;115087;-81
2024/01/09 04:15:50;;;;;;;5.40;4.68;;;-10.90;62.70;;;;;;4973856;28;116176;-80
2024/01/09 04:18:17;;;;;;;14.43;10.85;;;-10.90;62.60;;;;;;5008951;28;114306;-79
2024/01/09 04:20:45;;;;;;;25.08;4.93;;;-10.90;62.90;;;;;;5008769;28;114282;-79
2024/01/09 04:23:12;;;;;;;3.17;2.42;;;-10.90;62.70;;;;;;5007720;28;117269;-81
2024/01/09 04:25:40;;;;;;;10.18;6.18;;;-10.90;62.40;;;;;;5008342;28;115159;-81
2024/01/09 04:28:07;;;;;;;9.65;7.05;;;-11.10;62.30;;;;;;5008637;28;114368;-81
2024/01/09 04:30:34;;;;;;;6.82;4.30;;;-11.10;62.60;;;;;;5007284;28;114885;-79
2024/01/09 04:33:02;;;;;;;15.02;6.97;;;-11.10;62.60;;;;;;5005653;28;115371;-79
2024/01/09 04:35:29;;;;;;;16.23;5.15;;;-11.10;62.60;;;;;;5005863;28;116199;-80
2024/01/09 04:37:56;;;;;;;9.55;7.15;;;-11.20;62.70;;;;;;5007028;28;114347;-80
2024/01/09 04:40:25;;;;;;;18.70;7.68;;;-11.20;62.60;;;;;;5008353;28;114570;-80
2024/01/09 04:42:52;;;;;;;9.70;6.68;;;-11.30;62.30;;;;;;5005933;28;115495;-80
2024/01/09 04:45:20;;;;;;;10.50;7.35;;;-11.40;62.30;;;;;;5006707;28;117420;-80
2024/01/09 04:47:47;;;;;;;13.77;5.43;;;-11.40;62.70;;;;;;5009790;28;114395;-81
2024/01/09 04:50:15;;;;;;;9.52;4.85;;;-11.40;62.50;;;;;;5008662;28;114482;-80
2024/01/09 04:52:43;;;;;;;8.48;4.55;;;-11.40;62.80;;;;;;4989452;28;115159;-80
2024/01/09 04:55:10;;;;;;;11.05;6.13;;;-11.50;62.80;;;;;;5007058;28;114600;-81
2024/01/09 04:57:38;;;;;;;14.18;9.38;;;-11.40;63.10;;;;;;5006206;28;114523;-81
2024/01/09 05:00:06;;;;;;;10.25;4.88;;;-11.40;63.10;;;;;;5007564;28;114594;-81
2024/01/09 05:02:33;;;;;;;18.98;6.90;;;-11.40;63.00;;;;;;5005850;28;115673;-80
2024/01/09 05:05:02;;;;;;;10.40;6.93;;;-11.30;63.00;;;;;;5007007;28;114597;-81
2024/01/09 05:07:32;;;;;;;7.78;4.22;;;-11.30;63.00;;;;;;4989788;28;114312;-81
2024/01/09 05:09:59;;;;;;;7.00;4.25;;;-11.40;62.80;;;;;;5006464;28;114544;-81
2024/01/09 05:12:26;;;;;;;24.25;10.25;;;-11.30;63.20;;;;;;5006756;28;115678;-81
2024/01/09 05:14:54;;;;;;;13.82;6.82;;;-11.30;62.90;;;;;;5007172;28;114994;-81
2024/01/09 05:17:21;;;;;;;10.25;4.43;;;-11.30;62.70;;;;;;5006460;28;114607;-82
2024/01/09 05:19:48;;;;;;;11.80;4.95;;;-11.40;62.90;;;;;;5002692;28;114294;-80
2024/01/09 05:22:21;;;;;;;15.20;9.95;;;-11.40;62.80;;;;;;5008637;28;114597;-81
2024/01/09 05:24:48;;;;;;;8.43;4.90;;;-11.40;62.80;;;;;;4989000;28;117790;-81
2024/01/09 05:27:16;;;;;;;1.58;1.48;;;-11.50;62.60;;;;;;5006140;28;114266;-80
2024/01/09 05:29:43;;;;;;;14.50;7.97;;;-11.60;62.50;;;;;;5011095;28;114650;-83
2024/01/09 05:32:10;;;;;;;20.15;8.70;;;-11.60;62.70;;;;;;4992213;28;114699;-82
2024/01/09 05:34:38;;;;;;;16.77;10.52;;;-11.60;62.90;;;;;;4989012;28;114695;-80
2024/01/09 05:37:10;;;;;;;9.60;5.45;;;-11.60;62.70;;;;;;5007176;28;114322;-80
2024/01/09 05:39:37;;;;;;;20.65;5.05;;;-11.60;62.60;;;;;;5006810;28;114436;-80
2024/01/09 05:42:05;;;;;;;9.90;8.40;;;-11.70;62.90;;;;;;5009543;28;114516;-80
2024/01/09 05:44:34;;;;;;;14.23;7.63;;;-11.60;62.90;;;;;;5009421;28;114354;-80
2024/01/09 05:47:04;;;;;;;10.85;5.35;;;-11.50;63.10;;;;;;5005518;28;114515;-80
2024/01/09 05:49:31;;;;;;;12.60;5.85;;;-11.50;62.80;;;;;;5007122;28;114452;-80
2024/01/09 05:51:59;;;;;;;13.63;12.10;;;-11.60;62.40;;;;;;5006143;28;115183;-80
2024/01/09 05:54:26;;;;;;;22.15;11.23;;;-11.60;62.60;;;;;;5005943;28;115897;-80
2024/01/09 05:56:56;;;;;;;25.30;5.78;;;-11.70;62.40;;;;;;5006975;28;114493;-81
2024/01/09 05:59:24;;;;;;;13.75;6.85;;;-11.80;62.20;;;;;;5006040;28;114615;-80
2024/01/09 06:01:51;;;;;;;9.90;7.18;;;-11.80;62.30;;;;;;5005668;28;115831;-80
2024/01/09 06:04:18;;;;;;;14.15;7.22;;;-11.90;62.50;;;;;;5006517;28;114856;-80
2024/01/09 06:06:46;;;;;;;12.15;8.63;;;-11.90;62.50;;;;;;5005942;28;114450;-80
2024/01/09 06:09:13;;;;;;;9.15;5.05;;;-11.80;62.60;;;;;;5005788;28;114773;-80
2024/01/09 06:11:40;;;;;;;2.92;2.30;;;-11.80;62.70;;;;;;5004992;28;117346;-80
2024/01/09 06:14:08;;;;;;;20.77;9.52;;;-11.80;62.90;;;;;;5005351;28;115571;-81
2024/01/09 06:16:35;;;;;;;3.05;2.85;;;-11.70;62.90;;;;;;5006774;28;114338;-80
2024/01/09 06:19:02;;;;;;;16.88;8.25;;;-11.80;62.20;;;;;;5005569;28;114475;-81
2024/01/09 06:21:30;;;;;;;12.90;8.38;;;-11.80;62.40;;;;;;5005691;28;115198;-80
2024/01/09 06:23:57;;;;;;;6.82;6.13;;;-11.80;62.40;;;;;;5005397;28;115836;-81
2024/01/09 06:26:24;;;;;;;12.27;5.57;;;-11.80;62.50;;;;;;5006631;28;114368;-80
2024/01/09 06:28:52;;;;;;;11.43;6.93;;;-11.90;62.40;;;;;;5006104;28;114436;-81
2024/01/09 06:31:19;;;;;;;18.80;7.78;;;-11.80;62.50;;;;;;5005424;28;115356;-82
2024/01/09 06:33:46;;;;;;;15.60;3.47;;;-11.80;62.60;;;;;;5004432;28;114715;-82
2024/01/09 06:36:14;;;;;;;11.85;4.88;;;-11.70;62.70;;;;;;5004770;28;114712;-79
2024/01/09 06:38:41;;;;;;;19.25;7.45;;;-11.80;62.50;;;;;;4988548;28;114481;-80
2024/01/09 06:41:08;;;;;;;17.92;7.60;;;-11.80;62.60;;;;;;5005613;28;115399;-80
2024/01/09 06:43:36;;;;;;;23.90;11.90;;;-11.80;62.40;;;;;;5003157;28;115366;-80
2024/01/09 06:46:03;;;;;;;9.68;5.22;;;-11.80;62.30;;;;;;5005209;28;114620;-80
2024/01/09 06:48:30;;;;;;;7.28;5.20;;;-11.90;62.10;;;;;;4972175;28;114321;-80
2024/01/09 06:50:58;;;;;;;14.23;8.20;;;-11.90;62.30;;;;;;5005465;28;115256;-80
2024/01/09 06:53:25;;;;;;;25.52;9.95;;;-12.00;62.30;;;;;;5010062;28;114773;-80
2024/01/09 06:55:54;;;;;;;26.52;14.98;;;-12.10;62.10;;;;;;4988243;28;114605;-80
2024/01/09 06:58:21;;;;;;;14.63;8.20;;;-12.10;62.40;;;;;;5006462;28;114368;-80
2024/01/09 07:00:51;;;;;;;15.18;6.72;;;-12.10;62.40;;;;;;4987271;28;115778;-80
2024/01/09 07:03:19;;;;;;;17.73;8.75;;;-12.10;62.40;;;;;;5004365;28;114643;-81
2024/01/09 07:05:46;;;;;;;30.63;11.40;;;-12.00;62.70;;;;;;5006154;28;114449;-81
2024/01/09 07:08:14;;;;;;;14.65;8.93;;;-12.00;62.50;;;;;;5004397;28;114572;-81
2024/01/09 07:10:42;;;;;;;23.60;10.93;;;-11.90;62.50;;;;;;5004280;28;115182;-81
2024/01/09 07:13:09;;;;;;;9.65;6.07;;;-11.90;62.60;;;;;;5003627;28;115247;-81
2024/01/09 07:15:39;;;;;;;8.68;3.95;;;-11.90;62.30;;;;;;5004827;28;114278;-80
2024/01/09 07:18:06;;;;;;;21.38;13.23;;;-11.90;62.40;;;;;;5006586;28;114186;-81
2024/01/09 07:20:35;;;;;;;13.23;7.72;;;-11.80;62.50;;;;;;5005109;28;115153;-80
2024/01/09 07:23:06;;;;;;;11.00;7.75;;;-11.80;62.40;;;;;;5005154;28;114820;-80
2024/01/09 07:25:46;;;;;;;30.20;8.98;;;-11.80;62.40;;;;;;5005120;28;114447;-81
2024/01/09 07:28:14;;;;;;;21.08;12.10;;;-11.70;62.30;;;;;;5004484;28;114818;-83
2024/01/09 07:30:41;;;;;;;8.05;6.90;;;-11.60;62.30;;;;;;5006260;28;115146;-82
2024/01/09 07:33:12;;;;;;;3.63;2.80;;;-11.70;62.00;;;;;;5006327;28;114632;-80
2024/01/09 07:35:40;;;;;;;16.02;9.50;;;-11.70;62.20;;;;;;5006699;28;114379;-80
2024/01/09 07:38:08;;;;;;;15.20;7.57;;;-11.70;62.40;;;;;;5005003;28;114441;-79
2024/01/09 07:40:36;;;;;;;14.52;10.60;;;-11.50;62.60;;;;;;5004912;28;115831;-80
2024/01/09 07:43:04;;;;;;;8.65;6.03;;;-11.40;62.40;;;;;;5004222;28;114743;-80
2024/01/09 07:45:32;;;;;;;13.95;8.48;;;-11.40;62.00;;;;;;5006573;28;114342;-80
2024/01/09 07:48:00;;;;;;;8.13;5.10;;;-11.60;62.00;;;;;;5008119;28;114349;-80
2024/01/09 07:50:27;;;;;;;11.50;6.72;;;-11.60;61.80;;;;;;4973905;28;118096;-81
2024/01/09 07:52:56;;;;;;;9.65;4.30;;;-11.50;62.30;;;;;;5008658;28;114808;-80
2024/01/09 07:55:24;;;;;;;19.75;13.15;;;-11.40;62.30;;;;;;5008818;28;114366;-81
2024/01/09 07:57:52;;;;;;;5.57;3.92;;;-11.50;61.90;;;;;;4991586;28;114619;-81
2024/01/09 08:00:19;;;;;;;14.25;12.35;;;-11.50;61.70;;;;;;4977240;28;115757;-81
2024/01/09 08:02:47;;;;;;;21.25;8.05;;;-11.60;61.90;;;;;;5010749;28;115153;-82
2024/01/09 08:05:15;;;;;;;14.18;10.00;;;-11.50;61.90;;;;;;4991757;28;114440;-81
2024/01/09 08:07:43;;;;;;;27.10;13.57;;;-11.50;62.00;;;;;;5009496;28;114351;-81
2024/01/09 08:10:10;;;;;;;17.25;7.97;;;-11.40;61.90;;;;;;4990142;28;117999;-80
2024/01/09 08:12:37;;;;;;;23.50;14.73;;;-11.50;61.30;;;;;;4990256;28;114669;-81
2024/01/09 08:15:05;;;;;;;21.20;9.88;;;-11.60;61.20;;;;;;5008270;28;114233;-80
2024/01/09 08:17:35;;;;;;;5.78;2.97;;;-11.50;61.80;;;;;;5007901;28;114258;-81
2024/01/09 08:20:03;;;;;;;22.23;12.20;;;-11.40;61.60;;;;;;5007793;28;115076;-81
2024/01/09 08:22:31;;;;;;;16.13;7.38;;;-11.30;61.60;;;;;;4975034;28;114846;-81
2024/01/09 08:24:59;;;;;;;12.85;8.95;;;-11.30;61.50;;;;;;5008116;28;114258;-81
2024/01/09 08:27:28;;;;;;;15.05;8.18;;;-11.30;61.50;;;;;;4974918;28;114377;-80
2024/01/09 08:29:55;;;;;;;12.15;6.57;;;-11.10;61.50;;;;;;4993745;28;115294;-82
2024/01/09 08:32:23;;;;;;;12.93;7.22;;;-11.10;61.30;;;;;;5009525;28;115014;-80
2024/01/09 08:34:50;;;;;;;8.95;4.20;;;-11.20;61.00;;;;;;5007742;28;114778;-80
2024/01/09 08:37:18;;;;;;;13.90;8.48;;;-11.20;60.90;;;;;;5008619;28;114472;-81
2024/01/09 08:39:46;;;;;;;10.00;6.55;;;-11.20;60.90;;;;;;5006183;28;115208;-80
2024/01/09 08:42:13;;;;;;;32.92;13.82;;;-11.30;60.70;;;;;;4973661;28;118319;-82
2024/01/09 08:44:40;;;;;;;14.82;10.23;;;-11.20;61.00;;;;;;5008704;28;114319;-81
2024/01/09 08:47:12;;;;;;;8.75;7.95;;;-11.20;61.00;;;;;;5008258;28;114737;-81
2024/01/09 08:49:44;;;;;;;11.77;7.10;;;-11.10;60.70;;;;;;5007175;28;115151;-79
2024/01/09 08:52:13;;;;;;;13.18;6.18;;;-11.10;60.70;;;;;;5007272;28;114614;-81
2024/01/09 08:54:41;;;;;;;11.07;3.90;;;-11.10;61.10;;;;;;5008095;28;114457;-83
2024/01/09 08:57:08;;;;;;;9.15;5.47;;;-11.00;61.10;;;;;;5007234;28;114357;-80
2024/01/09 08:59:36;;;;;;;23.52;13.07;;;-10.90;60.90;;;;;;4988757;28;117477;-81
2024/01/09 09:02:04;;;;;;;33.92;15.02;;;-10.80;61.10;;;;;;4972921;28;116101;-83
2024/01/09 09:04:31;;;;;;;12.70;10.73;;;-10.80;61.20;;;;;;5006078;28;114254;-81
2024/01/09 09:06:59;;;;;;;16.88;7.93;;;-10.60;61.00;;;;;;5006167;28;114439;-81
2024/01/09 09:09:27;;;;;;;9.50;6.93;;;-10.50;60.60;;;;;;5006657;28;115185;-81
2024/01/09 09:11:54;;;;;;;19.55;12.43;;;-10.50;60.30;;;;;;5006753;28;115085;-81
2024/01/09 09:14:22;;;;;;;60.53;27.55;;;-10.50;60.00;;;;;;5006152;28;114557;-80
2024/01/09 09:16:49;;;;;;;10.75;6.43;;;-10.50;60.50;;;;;;5007530;28;114568;-81
2024/01/09 09:19:34;;;;;;;11.48;10.30;;;-10.50;60.30;;;;;;5005607;28;114638;-80
2024/01/09 09:22:01;;;;;;;29.77;14.35;;;-10.30;60.40;;;;;;5006968;28;114809;-80
2024/01/09 09:24:29;;;;;;;30.77;15.23;;;-10.30;60.30;;;;;;5007673;28;114314;-81
2024/01/09 09:26:57;;;;;;;32.13;16.25;;;-10.20;60.00;;;;;;5007477;28;114483;-81
2024/01/09 09:29:25;;;;;;;26.38;13.45;;;-10.10;60.00;;;;;;5006377;28;116748;-80
2024/01/09 09:32:04;;;;;;;12.65;7.78;;;-10.00;60.10;;;;;;5006959;28;114457;-80
2024/01/09 09:34:31;;;;;;;10.15;7.18;;;-9.90;59.80;;;;;;5007810;28;114350;-81
2024/01/09 09:36:59;;;;;;;15.98;7.22;;;-9.90;60.00;;;;;;4973287;28;114613;-81
2024/01/09 09:39:26;;;;;;;18.90;11.07;;;-9.80;60.20;;;;;;5005283;28;115081;-79
2024/01/09 09:41:58;;;;;;;16.42;10.60;;;-9.70;60.20;;;;;;5006385;28;114543;-80
2024/01/09 09:44:26;;;;;;;19.42;8.30;;;-9.60;60.10;;;;;;5006721;28;114247;-80
2024/01/09 09:46:57;;;;;;;22.27;10.25;;;-9.50;60.20;;;;;;5007858;28;114817;-81
2024/01/09 09:49:25;;;;;;;33.47;17.77;;;-9.40;60.20;;;;;;5005678;28;115166;-81
2024/01/09 09:51:53;;;;;;;15.77;11.82;;;-9.30;60.30;;;;;;5004902;28;114784;-80
2024/01/09 09:54:29;;;;;;;23.15;12.45;;;-9.30;60.00;;;;;;5005811;28;114296;-81
2024/01/09 09:56:56;;;;;;;41.78;21.30;;;-9.20;60.00;;;;;;5007044;28;114622;-81
2024/01/09 09:59:26;;;;;;;22.95;13.63;;;-9.10;59.90;;;;;;4972334;28;117569;-81
2024/01/09 10:01:54;;;;;;;25.60;12.35;;;-9.10;59.80;;;;;;4988248;28;114770;-80
2024/01/09 10:04:49;;;;;;;40.88;16.85;;;-9.00;59.90;;;;;;4972700;28;114571;-81
2024/01/09 10:07:20;;;;;;;35.58;16.42;;;-8.90;59.80;;;;;;5006112;28;114584;-81
2024/01/09 10:09:52;;;;;;;45.15;17.50;;;-8.80;59.60;;;;;;5003981;28;115163;-80
2024/01/09 10:12:24;;;;;;;36.50;16.45;;;-8.70;59.70;;;;;;5007052;28;115752;-81
2024/01/09 10:15:03;;;;;;;47.97;24.02;;;-8.60;59.50;;;;;;4990645;28;114753;-79
2024/01/09 10:17:31;;;;;;;43.22;17.02;;;-8.50;59.50;;;;;;4989407;28;114669;-81
2024/01/09 10:20:03;;;;;;;37.97;17.27;;;-8.40;59.50;;;;;;5004321;28;115669;-80
2024/01/09 10:22:35;;;;;;;38.40;20.35;;;-8.40;59.50;;;;;;5005241;28;114621;-81
2024/01/09 10:25:12;;;;;;;42.92;18.35;;;-8.30;59.40;;;;;;5005896;28;114437;-81
2024/01/09 10:27:40;;;;;;;40.10;21.75;;;-8.20;59.30;;;;;;4988853;28;114533;-80
2024/01/09 10:30:09;;;;;;;20.88;12.05;;;-8.20;59.30;;;;;;4988020;28;115089;-80
2024/01/09 10:32:38;;;;;;;52.40;17.80;;;-8.20;59.20;;;;;;5004251;28;115131;-81
2024/01/09 10:35:11;;;;;;;36.20;18.27;;;-8.10;59.30;;;;;;5006437;28;114197;-81
2024/01/09 10:37:39;;;;;;;36.70;20.48;;;-8.10;59.10;;;;;;5007025;28;114556;-80
2024/01/09 10:40:06;;;;;;;31.92;18.33;;;-8.10;58.90;;;;;;4987569;28;115209;-80
2024/01/09 10:42:45;;;;;;;31.65;14.45;;;-8.10;58.90;;;;;;4988331;28;115496;-81
2024/01/09 10:45:14;;;;;;;38.65;15.93;;;-8.00;59.00;;;;;;4972150;28;114353;-81
2024/01/09 10:47:42;;;;;;;30.88;13.48;;;-7.90;59.10;;;;;;4989225;28;114642;-81
2024/01/09 10:50:10;;;;;;;34.30;18.42;;;-7.90;59.00;;;;;;5004947;28;115177;-81
2024/01/09 10:52:37;;;;;;;55.15;22.83;;;-7.90;58.90;;;;;;4987759;28;115880;-81
2024/01/09 10:55:06;;;;;;;39.10;16.92;;;-7.80;58.80;;;;;;5005142;28;114354;-81
2024/01/09 10:57:33;;;;;;;38.40;17.85;;;-7.90;58.50;;;;;;5006910;28;114336;-80
2024/01/09 11:00:00;;;;;;;38.33;17.13;;;-7.90;58.40;;;;;;4987672;28;115776;-80
2024/01/09 11:02:34;;;;;;;52.30;21.70;;;-7.90;58.60;;;;;;4970539;28;117219;-80
2024/01/09 11:05:04;;;;;;;41.65;19.42;;;-7.80;58.70;;;;;;5004727;28;114439;-80
2024/01/09 11:07:35;;;;;;;41.58;20.77;;;-7.80;58.80;;;;;;5005365;28;114279;-80
2024/01/09 11:10:04;;;;;;;36.53;17.27;;;-7.80;58.80;;;;;;4971931;28;115160;-80
2024/01/09 11:12:39;;;;;;;36.97;19.48;;;-7.80;58.70;;;;;;5005624;28;116810;-80
2024/01/09 11:15:20;;;;;;;17.83;10.23;;;-7.80;58.50;;;;;;5006326;28;114304;-81
2024/01/09 11:18:09;;;;;;;31.10;15.57;;;-7.90;58.10;;;;;;5006603;28;114270;-81
2024/01/09 11:20:38;;;;;;;33.08;14.20;;;-8.10;57.90;;;;;;4973749;28;115163;-81
2024/01/09 11:23:06;;;;;;;19.38;8.77;;;-8.20;58.30;;;;;;5007456;28;114598;-81
2024/01/09 11:25:36;;;;;;;28.30;11.82;;;-8.30;58.50;;;;;;4992239;28;114440;-81
2024/01/09 11:28:04;;;;;;;38.58;17.23;;;-8.40;58.40;;;;;;5009576;28;114366;-81
2024/01/09 11:30:31;;;;;;;41.20;17.17;;;-8.50;58.50;;;;;;4973514;28;117831;-80
2024/01/09 11:33:28;;;;;;;28.83;11.85;;;-8.50;58.80;;;;;;4991198;28;114620;-81
2024/01/09 11:35:56;;;;;;;20.23;11.93;;;-8.60;58.60;;;;;;4958667;28;114831;-81
2024/01/09 11:38:24;;;;;;;31.33;15.68;;;-8.60;58.80;;;;;;4975374;28;114453;-80
2024/01/09 11:40:55;;;;;;;34.42;15.10;;;-8.70;58.30;;;;;;4990738;28;115138;-81
2024/01/09 11:43:22;;;;;;;20.95;12.20;;;-8.80;58.20;;;;;;5006825;28;114628;-81
2024/01/09 11:45:50;;;;;;;18.70;10.50;;;-8.90;58.50;;;;;;5008670;28;114514;-81
2024/01/09 11:48:17;;;;;;;31.45;15.88;;;-8.90;58.60;;;;;;4990977;28;114636;-82
2024/01/09 11:50:47;;;;;;;31.30;16.73;;;-8.90;58.40;;;;;;4974562;28;115500;-80
2024/01/09 11:53:16;;;;;;;33.20;13.32;;;-9.00;58.20;;;;;;5015865;28;115244;-83
2024/01/09 11:55:45;;;;;;;33.80;15.73;;;-9.10;58.00;;;;;;5014669;28;114214;-81
2024/01/09 11:58:12;;;;;;;41.75;18.50;;;-9.10;58.40;;;;;;4991386;28;114396;-81
2024/01/09 12:00:40;;;;;;;39.92;15.02;;;-9.00;58.90;;;;;;5006333;28;115172;-80
2024/01/09 12:03:08;;;;;;;28.92;16.55;;;-8.90;58.70;;;;;;5007727;28;114686;-81
2024/01/09 12:05:35;;;;;;;30.92;16.88;;;-8.90;58.50;;;;;;5007393;28;114757;-80
2024/01/09 12:08:03;;;;;;;27.83;14.63;;;-8.80;58.60;;;;;;4990344;28;114563;-80
2024/01/09 12:10:35;;;;;;;38.00;18.08;;;-8.80;58.70;;;;;;5006308;28;116472;-81
2024/01/09 12:13:05;;;;;;;37.35;18.27;;;-8.70;58.70;;;;;;4989975;28;114836;-81
2024/01/09 12:15:32;;;;;;;28.25;14.88;;;-8.60;58.60;;;;;;5007248;28;114366;-82
2024/01/09 12:18:01;;;;;;;37.75;14.57;;;-8.70;58.30;;;;;;5008637;28;114299;-79
2024/01/09 12:20:29;;;;;;;24.80;13.20;;;-8.70;58.30;;;;;;4990016;28;115252;-81
2024/01/09 12:22:57;;;;;;;25.10;12.00;;;-8.70;58.30;;;;;;5006225;28;115026;-81
2024/01/09 12:25:26;;;;;;;25.63;12.73;;;-8.60;58.30;;;;;;5007872;28;114275;-79